Time;durP1;ratioP1;P1;durP2;ratioP2;P2;SDS_P1;SDS_P2;PMS_P1;PMS_P2;Temp;Humidity;BMP_temperature;BMP_pressure;BME280_temperature;BME280_humidity;BME280_pressure;Samples;Min_cycle;Max_cycle;Signal;HPM_P1;HPM_P2
2023/12/28 00:00:16;;;;;;;53.90;37.83;;;;;;;7.92;100.00;100782.75;4904600;29;20062;-83
2023/12/28 00:02:41;;;;;;;62.85;36.00;;;;;;;7.92;100.00;100767.84;4908231;29;20040;-82
2023/12/28 00:05:07;;;;;;;57.13;36.28;;;;;;;7.93;100.00;100766.06;4911395;29;20435;-83
2023/12/28 00:07:32;;;;;;;62.58;38.75;;;;;;;7.92;100.00;100773.09;4911839;29;20618;-82
2023/12/28 00:09:58;;;;;;;54.10;37.25;;;;;;;7.94;100.00;100770.38;4909747;29;20025;-83
2023/12/28 00:12:23;;;;;;;56.30;36.50;;;;;;;7.94;100.00;100767.75;4916427;29;20044;-82
2023/12/28 00:14:49;;;;;;;56.65;39.42;;;;;;;7.95;100.00;100772.06;4910024;29;20036;-82
2023/12/28 00:17:15;;;;;;;56.60;38.75;;;;;;;7.98;100.00;100767.44;4904602;29;20036;-83
2023/12/28 00:19:41;;;;;;;58.38;37.83;;;;;;;8.00;100.00;100770.00;4903965;29;20094;-82
2023/12/28 00:22:06;;;;;;;55.47;38.15;;;;;;;8.04;100.00;100769.69;4905471;29;20068;-82
2023/12/28 00:24:32;;;;;;;52.47;37.28;;;;;;;8.05;100.00;100770.53;4904822;29;20063;-82
2023/12/28 00:26:57;;;;;;;51.13;36.80;;;;;;;8.04;100.00;100766.22;4907790;29;20079;-82
2023/12/28 00:29:23;;;;;;;54.90;37.10;;;;;;;8.03;100.00;100770.63;4903831;29;20043;-83
2023/12/28 00:31:48;;;;;;;51.83;36.30;;;;;;;8.03;100.00;100767.16;4903827;29;20449;-82
2023/12/28 00:34:14;;;;;;;54.65;36.72;;;;;;;8.02;100.00;100768.94;4906246;29;20361;-82
2023/12/28 00:36:39;;;;;;;60.13;37.40;;;;;;;8.04;100.00;100766.22;4902490;29;20032;-82
2023/12/28 00:39:05;;;;;;;54.92;36.90;;;;;;;8.04;100.00;100760.97;4905054;29;20032;-83
2023/12/28 00:41:31;;;;;;;51.22;35.85;;;;;;;8.04;100.00;100761.81;4905693;29;20028;-84
2023/12/28 00:43:56;;;;;;;52.05;35.25;;;;;;;8.03;100.00;100762.75;4905368;29;20074;-83
2023/12/28 00:46:22;;;;;;;52.13;36.72;;;;;;;8.06;100.00;100764.34;4905799;29;20096;-83
2023/12/28 00:48:48;;;;;;;51.38;35.17;;;;;;;8.06;100.00;100764.34;4904252;29;20123;-83
2023/12/28 00:51:13;;;;;;;58.17;36.33;;;;;;;8.08;100.00;100767.69;4905064;29;20103;-83
2023/12/28 00:53:39;;;;;;;54.55;36.97;;;;;;;8.07;100.00;100766.84;4904815;29;20374;-84
2023/12/28 00:56:05;;;;;;;49.72;35.22;;;;;;;8.08;100.00;100767.69;4905250;29;20051;-84
2023/12/28 00:58:30;;;;;;;56.35;36.60;;;;;;;8.07;100.00;100760.78;4901672;29;20067;-83
2023/12/28 01:00:57;;;;;;;51.20;35.08;;;;;;;8.06;100.00;100761.72;4902777;29;20457;-82
2023/12/28 01:03:23;;;;;;;50.05;34.92;;;;;;;8.03;100.00;100764.53;4904322;29;20122;-85
2023/12/28 01:05:52;;;;;;;50.47;35.22;;;;;;;7.97;100.00;100759.66;4908522;29;20055;-83
2023/12/28 01:08:17;;;;;;;52.58;36.20;;;;;;;7.92;100.00;100759.94;4903104;29;20028;-82
2023/12/28 01:10:43;;;;;;;53.20;36.38;;;;;;;7.87;100.00;100766.44;4904520;29;20054;-84
2023/12/28 01:13:09;;;;;;;51.35;34.85;;;;;;;7.86;100.00;100767.38;4906917;29;20055;-83
2023/12/28 01:15:35;;;;;;;52.15;34.65;;;;;;;7.86;100.00;100768.22;4905171;29;20034;-84
2023/12/28 01:18:00;;;;;;;53.97;35.58;;;;;;;7.88;100.00;100766.34;4899957;29;20041;-82
2023/12/28 01:20:26;;;;;;;52.67;35.88;;;;;;;7.86;100.00;100780.50;4903314;29;20067;-85
2023/12/28 01:22:53;;;;;;;49.90;33.42;;;;;;;7.92;100.00;100772.25;4901677;29;20103;-82
2023/12/28 01:25:18;;;;;;;49.83;33.85;;;;;;;7.92;100.00;100773.09;4905193;29;20039;-82
2023/12/28 01:27:44;;;;;;;48.85;33.67;;;;;;;7.89;100.00;100777.72;4904226;29;20033;-82
2023/12/28 01:30:10;;;;;;;50.22;34.25;;;;;;;7.91;100.00;100770.53;4902582;29;20031;-82
2023/12/28 01:32:35;;;;;;;45.97;32.55;;;;;;;7.92;100.00;100783.59;4905333;29;20054;-84
2023/12/28 01:35:01;;;;;;;48.20;32.67;;;;;;;7.79;100.00;100778.25;4900446;29;20047;-84
2023/12/28 01:37:31;;;;;;;51.35;32.72;;;;;;;7.86;100.00;100775.25;4902758;29;20119;-83
2023/12/28 01:39:56;;;;;;;49.30;32.90;;;;;;;7.92;100.00;100782.75;4899365;29;20040;-84
2023/12/28 01:42:22;;;;;;;45.78;31.95;;;;;;;7.94;100.00;100783.50;4901530;29;20040;-82
2023/12/28 01:44:48;;;;;;;45.72;31.75;;;;;;;7.95;100.00;100787.84;4905630;29;20040;-83
2023/12/28 01:47:14;;;;;;;46.95;31.45;;;;;;;7.93;100.00;100781.81;4903795;29;20044;-82
2023/12/28 01:49:40;;;;;;;47.97;31.85;;;;;;;7.92;100.00;100782.75;4903581;29;20024;-81
2023/12/28 01:52:06;;;;;;;44.85;32.55;;;;;;;7.93;100.00;100793.19;4904336;29;20044;-82
2023/12/28 01:54:34;;;;;;;47.72;32.03;;;;;;;7.92;100.00;100785.38;4903636;29;20537;-83
2023/12/28 01:57:01;;;;;;;50.80;33.33;;;;;;;7.98;100.00;100787.63;4901635;29;20084;-83
2023/12/28 01:59:27;;;;;;;45.65;32.45;;;;;;;7.95;100.00;100787.84;4902622;29;20527;-83
2023/12/28 02:01:53;;;;;;;44.50;31.23;;;;;;;7.82;100.00;100787.75;4898694;29;20059;-85
2023/12/28 02:04:25;;;;;;;49.10;32.30;;;;;;;7.92;100.00;100788.00;4902518;29;20111;-82
2023/12/28 02:06:56;;;;;;;47.28;33.72;;;;;;;7.91;100.00;100781.06;4886145;29;20399;-82
2023/12/28 02:09:22;;;;;;;49.17;32.47;;;;;;;7.85;100.00;100770.94;4887898;29;20421;-82
2023/12/28 02:11:47;;;;;;;46.50;32.40;;;;;;;7.79;100.00;100780.88;4906644;29;20024;-83
2023/12/28 02:14:13;;;;;;;43.88;31.77;;;;;;;7.81;100.00;100786.91;4904001;29;20040;-84
2023/12/28 02:17:10;;;;;;;50.15;31.55;;;;;;;7.83;100.00;100777.13;4901417;29;20118;-81
2023/12/28 02:19:53;;;;;;;47.45;31.92;;;;;;;7.87;100.00;100783.06;4904540;29;20064;-83
2023/12/28 02:22:23;;;;;;;47.25;31.10;;;;;;;7.89;100.00;100769.81;4903720;29;20052;-82
2023/12/28 02:25:04;;;;;;;45.40;31.30;;;;;;;7.92;100.00;100770.47;4909216;29;20529;-83
2023/12/28 02:27:30;;;;;;;;;;;;;;;7.93;100.00;100771.31;4900536;29;20056;-82
2023/12/28 02:29:57;;;;;;;47.03;32.70;;;;;;;7.94;100.00;100765.13;4907636;29;19926;-82
2023/12/28 02:32:33;;;;;;;46.67;32.10;;;;;;;7.95;100.00;100766.81;4908375;29;20071;-82
2023/12/28 02:35:10;;;;;;;45.92;32.08;;;;;;;7.94;100.00;100760.72;4904092;29;20028;-84
2023/12/28 02:37:37;;;;;;;45.03;31.25;;;;;;;7.90;100.00;100747.84;4905222;29;20036;-82
2023/12/28 02:40:03;;;;;;;44.25;31.48;;;;;;;7.82;100.00;100750.97;4910706;29;20111;-83
2023/12/28 02:42:29;;;;;;;48.33;31.98;;;;;;;7.80;100.00;100758.94;4903890;29;20566;-83
2023/12/28 02:44:54;;;;;;;48.15;32.00;;;;;;;7.86;100.00;100746.34;4908527;29;20041;-83
2023/12/28 02:47:20;;;;;;;41.67;29.38;;;;;;;7.89;100.00;100740.91;4914991;29;20044;-83
2023/12/28 02:49:45;;;;;;;46.05;31.55;;;;;;;7.86;100.00;100731.44;4918333;29;20024;-82
2023/12/28 02:52:11;;;;;;;47.63;31.80;;;;;;;7.91;100.00;100739.00;4903486;29;20152;-84
2023/12/28 02:54:36;;;;;;;50.40;32.17;;;;;;;7.93;100.00;100737.97;4914657;29;20084;-82
2023/12/28 02:57:02;;;;;;;42.35;30.33;;;;;;;7.92;100.00;100730.19;4920082;29;20042;-82
2023/12/28 02:59:28;;;;;;;45.92;31.95;;;;;;;7.90;100.00;100726.81;4917072;29;20031;-82
2023/12/28 03:01:53;;;;;;;44.50;31.50;;;;;;;7.87;100.00;100727.88;4915751;29;20043;-81
2023/12/28 03:04:19;;;;;;;43.45;31.35;;;;;;;7.88;100.00;100733.97;4918121;29;20055;-82
2023/12/28 03:06:46;;;;;;;47.28;32.90;;;;;;;7.87;100.00;100727.00;4919161;29;20044;-83
2023/12/28 03:09:12;;;;;;;45.40;31.70;;;;;;;7.86;100.00;100730.56;4915119;29;20406;-83
2023/12/28 03:11:38;;;;;;;44.50;31.65;;;;;;;7.87;100.00;100734.91;4900517;29;20032;-80
2023/12/28 03:14:03;;;;;;;45.50;30.90;;;;;;;7.88;100.00;100733.97;4913583;29;20465;-83
2023/12/28 03:16:29;;;;;;;49.13;32.72;;;;;;;7.85;100.00;100723.63;4910458;29;20107;-83
2023/12/28 03:18:55;;;;;;;47.25;32.83;;;;;;;7.79;100.00;100720.44;4905569;29;20033;-82
2023/12/28 03:21:20;;;;;;;49.70;32.30;;;;;;;7.75;100.00;100713.72;4911539;29;20028;-81
2023/12/28 03:23:46;;;;;;;46.92;32.75;;;;;;;7.73;100.00;100704.22;4908447;29;20039;-82
2023/12/28 03:26:11;;;;;;;45.65;32.47;;;;;;;7.72;100.00;100713.88;4922898;29;20040;-83
2023/12/28 03:28:37;;;;;;;41.17;31.98;;;;;;;7.74;100.00;100725.16;4924278;29;20040;-83
2023/12/28 03:31:03;;;;;;;44.95;31.73;;;;;;;7.72;100.00;100719.16;4916287;29;20045;-81
2023/12/28 03:33:28;;;;;;;46.55;33.08;;;;;;;7.74;100.00;100719.91;4916893;29;20028;-81
2023/12/28 03:35:54;;;;;;;48.05;33.55;;;;;;;7.75;100.00;100721.59;4920978;29;20055;-82
2023/12/28 03:38:19;;;;;;;45.83;33.22;;;;;;;7.76;100.00;100718.03;4922886;29;20107;-82
2023/12/28 03:40:47;;;;;;;45.45;31.45;;;;;;;7.78;100.00;100716.13;4916437;29;20122;-83
2023/12/28 03:43:13;;;;;;;48.30;34.20;;;;;;;7.82;100.00;100720.28;4920517;29;20036;-82
2023/12/28 03:45:38;;;;;;;46.65;32.35;;;;;;;7.88;100.00;100721.66;4918716;29;20068;-83
2023/12/28 03:48:04;;;;;;;45.42;31.92;;;;;;;7.91;100.00;100724.09;4917267;29;20039;-82
2023/12/28 03:50:30;;;;;;;47.60;32.75;;;;;;;7.90;100.00;100722.41;4918034;29;20028;-82
2023/12/28 03:52:58;;;;;;;42.40;30.50;;;;;;;7.95;100.00;100724.75;4906892;29;20040;-83
2023/12/28 03:55:24;;;;;;;45.15;31.27;;;;;;;7.94;100.00;100717.81;4905475;29;20043;-83
2023/12/28 03:57:51;;;;;;;46.08;31.73;;;;;;;7.95;100.00;100716.88;4912275;29;20465;-82
2023/12/28 04:00:17;;;;;;;44.03;30.98;;;;;;;7.95;100.00;100720.31;4904765;29;20398;-83
2023/12/28 04:02:42;;;;;;;44.83;31.25;;;;;;;7.92;100.00;100714.41;4902761;29;20044;-83
2023/12/28 04:05:08;;;;;;;48.20;33.25;;;;;;;7.89;100.00;100712.00;4907466;29;20160;-82
2023/12/28 04:07:33;;;;;;;50.95;33.47;;;;;;;7.87;100.00;100716.50;4909998;29;20032;-81
2023/12/28 04:09:59;;;;;;;54.78;34.63;;;;;;;7.80;100.00;100711.63;4896152;29;20089;-83
2023/12/28 04:12:24;;;;;;;48.83;32.58;;;;;;;7.73;100.00;100704.22;4907986;29;20052;-83
2023/12/28 04:14:50;;;;;;;46.80;33.40;;;;;;;7.67;100.00;100694.94;4906146;29;20048;-83
2023/12/28 04:17:16;;;;;;;46.08;33.10;;;;;;;7.66;100.00;100693.25;4907137;29;20056;-83
2023/12/28 04:19:43;;;;;;;52.00;34.33;;;;;;;7.67;100.00;100694.09;4903651;29;20043;-82
2023/12/28 04:22:08;;;;;;;48.83;34.33;;;;;;;7.62;100.00;100694.41;4908486;29;20036;-82
2023/12/28 04:24:34;;;;;;;45.75;33.80;;;;;;;7.61;100.00;100705.84;4906491;29;20032;-83
2023/12/28 04:26:59;;;;;;;49.40;34.22;;;;;;;7.61;100.00;100711.09;4893945;29;20032;-83
2023/12/28 04:29:25;;;;;;;52.22;34.75;;;;;;;7.58;100.00;100703.41;4899679;29;20079;-82
2023/12/28 04:31:51;;;;;;;45.92;33.67;;;;;;;7.60;100.00;100706.78;4909029;29;20119;-83
2023/12/28 04:34:16;;;;;;;46.15;33.70;;;;;;;7.59;100.00;100713.00;4906274;29;20064;-82
2023/12/28 04:36:44;;;;;;;43.35;33.03;;;;;;;7.56;100.00;100718.44;4905316;29;20040;-81
2023/12/28 04:39:10;;;;;;;51.25;34.22;;;;;;;7.53;100.00;100721.25;4902871;29;20032;-83
2023/12/28 04:41:35;;;;;;;47.40;33.35;;;;;;;7.62;100.00;100718.03;4905962;29;20038;-82
2023/12/28 04:44:01;;;;;;;45.90;33.17;;;;;;;7.65;100.00;100715.25;4905358;29;20115;-83
2023/12/28 04:46:27;;;;;;;44.83;32.75;;;;;;;7.65;100.00;100723.13;4908181;29;20066;-82
2023/12/28 04:48:52;;;;;;;43.38;31.10;;;;;;;7.66;100.00;100727.41;4905512;29;20035;-82
2023/12/28 04:51:18;;;;;;;51.28;32.97;;;;;;;7.68;100.00;100722.91;4908098;29;20095;-83
2023/12/28 04:53:44;;;;;;;51.33;33.72;;;;;;;7.68;100.00;100716.81;4904630;29;20492;-83
2023/12/28 04:56:09;;;;;;;48.20;34.08;;;;;;;7.66;100.00;100716.91;4906429;29;20079;-83
2023/12/28 04:58:35;;;;;;;48.33;33.33;;;;;;;7.68;100.00;100720.28;4907686;29;20032;-83
2023/12/28 05:01:03;;;;;;;45.53;33.20;;;;;;;7.66;100.00;100723.94;4903903;29;20032;-82
2023/12/28 05:03:29;;;;;;;48.60;33.75;;;;;;;7.68;100.00;100722.91;4905459;29;20047;-83
2023/12/28 05:05:54;;;;;;;47.97;33.30;;;;;;;7.73;100.00;100720.84;4907053;29;20429;-83
2023/12/28 05:08:20;;;;;;;50.97;34.13;;;;;;;7.76;100.00;100733.81;4903419;29;20072;-83
2023/12/28 05:10:46;;;;;;;45.40;32.28;;;;;;;7.77;100.00;100740.75;4905812;29;20137;-82
2023/12/28 05:13:12;;;;;;;46.88;32.42;;;;;;;7.78;100.00;100744.19;4903096;29;20048;-84
2023/12/28 05:15:37;;;;;;;39.72;30.85;;;;;;;7.60;100.00;100740.94;4905053;29;20103;-82
2023/12/28 05:18:03;;;;;;;45.22;32.65;;;;;;;7.66;100.00;100744.94;4904410;29;20120;-83
2023/12/28 05:20:29;;;;;;;46.63;32.53;;;;;;;7.60;100.00;100750.63;4907200;29;20027;-83
2023/12/28 05:22:54;;;;;;;43.55;31.30;;;;;;;7.70;100.00;100752.56;4903441;29;20036;-84
2023/12/28 05:25:20;;;;;;;46.13;30.67;;;;;;;7.73;100.00;100741.00;4903071;29;20040;-83
2023/12/28 05:27:46;;;;;;;46.20;31.73;;;;;;;7.75;100.00;100749.66;4903423;29;20037;-83
2023/12/28 05:30:11;;;;;;;46.03;32.22;;;;;;;7.76;100.00;100741.69;4904774;29;20126;-82
2023/12/28 05:32:37;;;;;;;46.58;32.70;;;;;;;7.74;100.00;100735.66;4907267;29;20500;-82
2023/12/28 05:35:03;;;;;;;47.50;33.42;;;;;;;7.67;100.00;100736.97;4904700;29;20028;-83
2023/12/28 05:37:28;;;;;;;45.70;32.97;;;;;;;7.59;100.00;100738.41;4902313;29;20038;-82
2023/12/28 05:39:54;;;;;;;43.58;32.45;;;;;;;7.60;100.00;100740.09;4906071;29;20028;-81
2023/12/28 05:42:19;;;;;;;44.28;32.45;;;;;;;7.62;100.00;100749.56;4897772;29;20037;-82
2023/12/28 05:44:45;;;;;;;41.33;31.17;;;;;;;7.55;100.00;100761.38;4905006;29;20044;-82
2023/12/28 05:47:11;;;;;;;42.58;31.38;;;;;;;7.61;100.00;100758.38;4904296;29;20072;-80
2023/12/28 05:49:37;;;;;;;47.55;34.30;;;;;;;7.66;100.00;100761.56;4905560;29;20036;-82
2023/12/28 05:52:03;;;;;;;45.97;33.30;;;;;;;7.63;100.00;100760.91;4902859;29;20044;-82
2023/12/28 05:54:28;;;;;;;46.42;33.22;;;;;;;7.62;100.00;100773.22;4909219;29;20032;-82
2023/12/28 05:56:54;;;;;;;48.33;33.90;;;;;;;7.48;100.00;100761.88;4907425;29;20056;-82
2023/12/28 05:59:21;;;;;;;52.58;34.08;;;;;;;7.50;100.00;100760.81;4906155;29;20032;-82
2023/12/28 06:01:47;;;;;;;50.90;33.72;;;;;;;7.51;100.00;100761.69;4906291;29;20091;-83
2023/12/28 06:04:12;;;;;;;46.72;33.10;;;;;;;7.57;100.00;100761.28;4902233;29;20044;-82
2023/12/28 06:06:38;;;;;;;46.85;33.30;;;;;;;7.59;100.00;100756.81;4906130;29;20028;-82
2023/12/28 06:09:04;;;;;;;47.38;33.78;;;;;;;7.55;100.00;100748.25;4902630;29;20040;-83
2023/12/28 06:11:30;;;;;;;47.40;33.65;;;;;;;7.51;100.00;100741.50;4903006;29;20051;-82
2023/12/28 06:13:55;;;;;;;46.17;32.63;;;;;;;7.53;100.00;100755.41;4901974;29;20020;-84
2023/12/28 06:16:21;;;;;;;45.13;32.45;;;;;;;7.52;100.00;100758.97;4904748;29;20132;-82
2023/12/28 06:18:46;;;;;;;46.25;33.35;;;;;;;7.55;100.00;100766.63;4907586;29;20032;-82
2023/12/28 06:21:12;;;;;;;46.22;33.55;;;;;;;7.50;100.00;100752.94;4909089;29;20032;-82
2023/12/28 06:23:37;;;;;;;43.15;31.75;;;;;;;7.50;100.00;100760.81;4906308;29;20425;-82
2023/12/28 06:26:06;;;;;;;49.15;33.47;;;;;;;7.56;100.00;100760.44;4904917;29;20701;-83
2023/12/28 06:28:32;;;;;;;46.58;34.47;;;;;;;7.58;100.00;100761.22;4906195;29;20046;-82
2023/12/28 06:31:01;;;;;;;51.55;34.00;;;;;;;7.56;100.00;100763.06;4909236;29;20524;-83
2023/12/28 06:33:28;;;;;;;47.08;32.45;;;;;;;7.53;100.00;100755.41;4904581;29;20377;-82
2023/12/28 06:35:54;;;;;;;46.22;32.60;;;;;;;7.56;100.00;100747.31;4907976;29;20052;-82
2023/12/28 06:38:19;;;;;;;50.55;32.22;;;;;;;7.59;100.00;100752.41;4910136;29;20126;-81
2023/12/28 06:40:45;;;;;;;45.92;32.85;;;;;;;7.61;100.00;100753.13;4904394;29;20359;-83
2023/12/28 06:43:10;;;;;;;48.67;32.53;;;;;;;7.64;100.00;100752.94;4905850;29;20111;-82
2023/12/28 06:45:36;;;;;;;46.35;33.03;;;;;;;7.66;100.00;100751.06;4908304;29;20104;-83
2023/12/28 06:48:02;;;;;;;51.78;32.80;;;;;;;7.67;100.00;100752.75;4903195;29;20132;-82
2023/12/28 06:50:27;;;;;;;48.15;33.15;;;;;;;7.69;100.00;100750.88;4906362;29;20032;-81
2023/12/28 06:52:53;;;;;;;46.50;32.72;;;;;;;7.66;100.00;100751.06;4905883;29;20174;-82
2023/12/28 06:55:18;;;;;;;42.53;31.55;;;;;;;7.70;100.00;100749.94;4902719;29;20084;-82
2023/12/28 06:57:44;;;;;;;46.58;34.95;;;;;;;7.72;100.00;100750.66;4906196;29;20029;-80
2023/12/28 07:00:10;;;;;;;45.50;33.80;;;;;;;7.71;100.00;100754.28;4905080;29;20054;-82
2023/12/28 07:02:35;;;;;;;45.70;33.33;;;;;;;7.70;100.00;100747.31;4909543;29;20040;-82
2023/12/28 07:05:01;;;;;;;48.45;32.85;;;;;;;7.70;100.00;100757.81;4909818;29;20047;-83
2023/12/28 07:07:27;;;;;;;46.58;32.97;;;;;;;7.71;100.00;100763.94;4911633;29;20092;-83
2023/12/28 07:09:52;;;;;;;46.85;32.85;;;;;;;7.71;100.00;100764.78;4913739;29;20036;-83
2023/12/28 07:12:20;;;;;;;44.08;32.65;;;;;;;7.71;100.00;100769.19;4909599;29;20037;-82
2023/12/28 07:14:46;;;;;;;44.63;35.00;;;;;;;7.69;100.00;100763.16;4909026;29;20358;-81
2023/12/28 07:17:15;;;;;;;46.25;33.75;;;;;;;7.65;100.00;100762.53;4908083;29;20408;-83
2023/12/28 07:19:41;;;;;;;46.78;34.05;;;;;;;7.64;100.00;100763.47;4906423;29;20029;-83
2023/12/28 07:22:07;;;;;;;47.67;34.20;;;;;;;7.63;100.00;100761.75;4907459;29;20036;-84
2023/12/28 07:24:32;;;;;;;43.60;33.75;;;;;;;7.66;100.00;100771.22;4908869;29;20430;-84
2023/12/28 07:26:58;;;;;;;50.83;35.42;;;;;;;7.67;100.00;100779.03;4912054;29;20032;-83
2023/12/28 07:29:23;;;;;;;46.53;34.47;;;;;;;7.61;100.00;100774.13;4911938;29;20028;-81
2023/12/28 07:31:49;;;;;;;48.08;35.08;;;;;;;7.69;100.00;100771.91;4913658;29;20071;-82
2023/12/28 07:34:15;;;;;;;44.63;34.63;;;;;;;7.70;100.00;100767.50;4912650;29;20028;-82
2023/12/28 07:36:43;;;;;;;50.00;34.95;;;;;;;7.70;100.00;100770.97;4916001;29;20043;-82
2023/12/28 07:39:09;;;;;;;47.35;34.13;;;;;;;7.71;100.00;100767.41;4919136;29;20028;-82
2023/12/28 07:41:34;;;;;;;50.28;34.70;;;;;;;7.69;100.00;100769.28;4909998;29;20101;-78
2023/12/28 07:44:00;;;;;;;48.90;36.40;;;;;;;7.65;100.00;100770.41;4909169;29;20041;-78
2023/12/28 07:46:27;;;;;;;55.17;35.97;;;;;;;7.63;100.00;100766.16;4896497;29;20420;-77
2023/12/28 07:48:52;;;;;;;51.40;35.95;;;;;;;7.59;100.00;100768.16;4904472;29;20028;-77
2023/12/28 07:51:18;;;;;;;52.78;37.15;;;;;;;7.64;100.00;100773.97;4907725;29;20082;-78
2023/12/28 07:53:43;;;;;;;49.45;33.47;;;;;;;7.67;100.00;100771.13;4904891;29;20037;-78
2023/12/28 07:56:09;;;;;;;46.42;34.50;;;;;;;7.74;100.00;100782.13;4903681;29;20087;-77
2023/12/28 07:58:37;;;;;;;50.85;34.90;;;;;;;7.79;100.00;100783.50;4906098;29;20032;-79
2023/12/28 08:01:03;;;;;;;53.72;35.38;;;;;;;7.82;100.00;100785.97;4906128;29;20035;-77
2023/12/28 08:03:29;;;;;;;48.88;34.72;;;;;;;7.87;100.00;100790.09;4903347;29;20024;-79
2023/12/28 08:05:55;;;;;;;54.13;33.95;;;;;;;7.86;100.00;100791.03;4907967;29;20056;-78
2023/12/28 08:08:20;;;;;;;44.13;33.70;;;;;;;7.88;100.00;100794.41;4903258;29;20056;-78
2023/12/28 08:10:46;;;;;;;47.47;33.70;;;;;;;7.89;100.00;100804.84;4905490;29;20147;-77
2023/12/28 08:13:12;;;;;;;47.95;34.75;;;;;;;7.87;100.00;100795.34;4904503;29;20043;-79
2023/12/28 08:15:37;;;;;;;49.75;34.25;;;;;;;7.86;100.00;100798.91;4900936;29;20037;-79
2023/12/28 08:18:04;;;;;;;48.47;33.78;;;;;;;7.86;100.00;100791.88;4905307;29;20119;-78
2023/12/28 08:20:29;;;;;;;50.40;34.58;;;;;;;7.92;100.00;100795.91;4904294;29;20036;-78
2023/12/28 08:22:55;;;;;;;49.50;35.00;;;;;;;7.97;100.00;100796.44;4904048;29;20036;-79
2023/12/28 08:25:21;;;;;;;45.53;32.88;;;;;;;8.05;100.00;100794.19;4902410;29;20040;-79
2023/12/28 08:27:47;;;;;;;46.50;33.42;;;;;;;8.09;100.00;100796.53;4904793;29;20358;-80
2023/12/28 08:30:13;;;;;;;45.67;32.78;;;;;;;8.15;100.00;100795.28;4903050;29;20044;-81
2023/12/28 08:32:38;;;;;;;51.78;33.45;;;;;;;8.19;100.00;100796.78;4905281;29;20028;-81
2023/12/28 08:35:04;;;;;;;45.63;33.30;;;;;;;8.22;100.00;100801.84;4901663;29;20032;-80
2023/12/28 08:37:30;;;;;;;43.95;32.17;;;;;;;8.22;100.00;100812.38;4906184;29;20028;-79
2023/12/28 08:39:55;;;;;;;44.90;33.47;;;;;;;8.22;100.00;100807.13;4906399;29;20166;-80
2023/12/28 08:42:21;;;;;;;45.90;32.63;;;;;;;8.23;100.00;100814.06;4903806;29;20133;-79
2023/12/28 08:44:46;;;;;;;46.85;34.45;;;;;;;8.26;100.00;100813.00;4905678;29;20127;-79
2023/12/28 08:47:13;;;;;;;45.08;33.22;;;;;;;8.26;100.00;100808.59;4915558;23;20116;-72
2023/12/28 08:49:39;;;;;;;52.38;34.05;;;;;;;8.23;100.00;100812.28;4904611;29;20032;-74
2023/12/28 08:52:04;;;;;;;49.83;35.42;;;;;;;8.18;100.00;100808.25;4906103;29;20028;-74
2023/12/28 08:54:30;;;;;;;51.22;34.67;;;;;;;8.17;100.00;100815.31;4903588;29;20028;-74
2023/12/28 08:56:55;;;;;;;48.80;35.17;;;;;;;8.18;100.00;100817.00;4903689;29;20047;-74
2023/12/28 08:59:21;;;;;;;49.30;32.70;;;;;;;8.25;100.00;100822.69;4905384;29;20127;-74
2023/12/28 09:01:47;;;;;;;46.78;33.17;;;;;;;8.30;100.00;100825.94;4904390;29;20044;-74
2023/12/28 09:04:14;;;;;;;47.75;34.63;;;;;;;8.33;100.00;100830.13;4904153;29;20043;-76
2023/12/28 09:06:39;;;;;;;43.75;34.47;;;;;;;8.32;100.00;100823.19;4906057;29;20051;-75
2023/12/28 09:09:05;;;;;;;56.95;35.03;;;;;;;8.29;100.00;100818.94;4903687;29;20032;-73
2023/12/28 09:11:31;;;;;;;46.83;33.65;;;;;;;8.30;100.00;100815.41;4904514;29;20489;-74
2023/12/28 09:13:57;;;;;;;53.05;34.78;;;;;;;8.34;100.00;100826.56;4902237;29;20031;-74
2023/12/28 09:16:22;;;;;;;47.30;33.90;;;;;;;8.33;100.00;100825.72;4902568;29;20070;-75
2023/12/28 09:18:48;;;;;;;51.90;34.42;;;;;;;8.33;100.00;100830.97;4905280;29;20111;-74
2023/12/28 09:21:13;;;;;;;51.60;34.53;;;;;;;8.43;100.00;100832.06;4905284;29;20481;-76
2023/12/28 09:23:40;;;;;;;48.13;34.30;;;;;;;8.49;100.00;100825.56;4903588;29;20483;-75
2023/12/28 09:26:06;;;;;;;48.00;34.80;;;;;;;8.55;100.00;100836.53;4902946;29;20036;-76
2023/12/28 09:28:32;;;;;;;43.40;33.33;;;;;;;8.60;100.00;100829.19;4904044;29;20508;-76
2023/12/28 09:30:58;;;;;;;47.08;35.70;;;;;;;8.56;100.00;100832.97;4901339;29;20558;-76
2023/12/28 09:33:24;;;;;;;52.92;36.03;;;;;;;8.62;100.00;100842.25;4902069;29;20036;-75
2023/12/28 09:35:49;;;;;;;52.08;34.40;;;;;;;8.68;100.00;100835.75;4903080;29;20374;-75
2023/12/28 09:38:15;;;;;;;53.10;35.33;;;;;;;8.71;100.00;100838.19;4903637;29;20139;-75
2023/12/28 09:40:43;;;;;;;47.28;34.03;;;;;;;8.69;100.00;100830.41;4903174;29;20024;-74
2023/12/28 09:43:09;;;;;;;48.38;34.17;;;;;;;8.70;100.00;100828.63;4901798;29;20063;-75
2023/12/28 09:45:34;;;;;;;46.00;35.13;;;;;;;8.75;100.00;100826.53;4904770;29;20488;-73
2023/12/28 09:48:00;;;;;;;50.70;35.33;;;;;;;8.82;100.00;100827.81;4901184;29;20386;-74
2023/12/28 09:50:26;;;;;;;45.45;36.05;;;;;;;8.86;100.00;100839.81;4899709;29;20397;-76
2023/12/28 09:52:53;;;;;;;47.38;35.45;;;;;;;8.86;100.00;100829.28;4905380;29;20033;-74
2023/12/28 09:55:19;;;;;;;49.25;34.80;;;;;;;8.82;100.00;100838.34;4903236;29;20060;-75
2023/12/28 09:57:45;;;;;;;48.20;34.33;;;;;;;8.80;100.00;100840.22;4903581;29;20088;-75
2023/12/28 10:00:12;;;;;;;49.85;35.47;;;;;;;8.78;100.00;100823.69;4904376;29;20036;-75
2023/12/28 10:02:41;;;;;;;54.47;37.00;;;;;;;8.78;100.00;100837.69;4904054;29;20144;-75
2023/12/28 10:05:07;;;;;;;48.67;35.67;;;;;;;8.74;100.00;100830.94;4903519;29;20044;-75
2023/12/28 10:07:40;;;;;;;49.13;37.15;;;;;;;8.74;100.00;100830.09;4903875;29;20084;-75
2023/12/28 10:10:05;;;;;;;49.65;36.33;;;;;;;8.76;100.00;100828.22;4901560;29;20030;-75
2023/12/28 10:12:32;;;;;;;47.53;35.50;;;;;;;8.79;100.00;100838.53;4903872;29;20686;-75
2023/12/28 10:14:58;;;;;;;55.15;37.00;;;;;;;8.80;100.00;100845.47;4902020;29;20366;-73
2023/12/28 10:17:23;;;;;;;50.28;36.58;;;;;;;8.71;100.00;100839.06;4905071;29;20064;-74
2023/12/28 10:19:49;;;;;;;56.58;39.72;;;;;;;8.67;100.00;100834.91;4903064;29;20111;-74
2023/12/28 10:22:15;;;;;;;55.30;39.55;;;;;;;8.76;100.00;100825.59;4904555;29;20040;-75
2023/12/28 10:24:44;;;;;;;50.58;37.85;;;;;;;8.71;100.00;100830.31;4902902;29;20104;-75
2023/12/28 10:27:09;;;;;;;54.83;39.33;;;;;;;8.69;100.00;100829.56;4904073;29;20044;-75
2023/12/28 10:29:36;;;;;;;52.60;38.08;;;;;;;8.69;100.00;100833.03;4900456;29;20058;-75
2023/12/28 10:32:01;;;;;;;53.22;40.00;;;;;;;8.70;100.00;100826.81;4903154;29;20037;-76
2023/12/28 10:34:26;;;;;;;59.70;39.75;;;;;;;8.71;100.00;100820.63;4904592;29;20040;-75
2023/12/28 10:36:52;;;;;;;52.80;37.58;;;;;;;8.71;100.00;100814.53;4901969;29;20025;-75
2023/12/28 10:39:20;;;;;;;56.30;37.67;;;;;;;8.73;100.00;100805.56;4903007;29;20033;-76
2023/12/28 10:41:49;;;;;;;54.45;37.55;;;;;;;8.79;100.00;100806.94;4902212;29;20044;-75
2023/12/28 10:44:19;;;;;;;52.08;37.55;;;;;;;8.83;100.00;100808.44;4904063;29;20033;-75
2023/12/28 10:46:47;;;;;;;49.65;37.05;;;;;;;8.88;100.00;100809.00;4902677;29;20199;-75
2023/12/28 10:49:16;;;;;;;53.63;36.97;;;;;;;8.92;100.00;100807.81;4900283;29;20127;-75
2023/12/28 10:51:43;;;;;;;54.55;38.42;;;;;;;8.91;100.00;100800.88;4903622;29;20437;-74
2023/12/28 10:54:23;;;;;;;54.25;36.67;;;;;;;8.91;100.00;100798.25;4901073;29;20522;-74
2023/12/28 10:57:09;;;;;;;51.15;38.25;;;;;;;8.95;100.00;100791.84;4902594;29;20032;-75
2023/12/28 11:00:03;;;;;;;53.33;37.78;;;;;;;9.02;100.00;100778.16;4898301;29;20028;-75
2023/12/28 11:02:39;;;;;;;49.97;37.75;;;;;;;9.08;100.00;100776.88;4901711;29;20073;-75
2023/12/28 11:05:07;;;;;;;53.17;38.08;;;;;;;9.10;100.00;100775.00;4900740;29;20036;-76